Baudette International Airport Baudette US
ICAO: KBDE
IATA: BDE
Category: Medium
Scheduled Services: No

Elevation: 1086 ft
TransAlt. 18000 ft.

Airport Communications:
ASOS:126.775
PRINCETON RDO:122.4
CTAF/UNICOM:122.8

KBDE Zoom In..

If Map Doesn't Load, Click Here

Runways:

(A) RW 12 length 5499 ft width 100 ft
---- / hdg 117

(B) RW 30 length 5499 ft width 100 ft
ILS 108.30 / hdg 297

Location; KBDE
Day. 23 / Time. 20.53 Zulu
* Altimeter: 30.09
* Temperature: 07° c. 44.6°f.
* Wind from: 090° Speed 14 kn with Gusts up to 25 kn.
Dewpoint: 04° c.
Visibility: 10 Statute Miles.
Clouds: Overcast 1100 ft.

KBDE 232053Z AUTO 09014G25KT 10SM OVC011 07/04 A3009 RMK AO2 SLP199 T00670044 56021


Wind From 090°
Speed 14 kn.

 
 
jpsmedia.com for Web Design worldairports.se 2018   terms of use